Time;durP1;ratioP1;P1;durP2;ratioP2;P2;SDS_P1;SDS_P2;PMS_P1;PMS_P2;Temp;Humidity;BMP_temperature;BMP_pressure;BME280_temperature;BME280_humidity;BME280_pressure;Samples;Min_cycle;Max_cycle;Signal;HPM_P1;HPM_P2
2023/03/21 00:01:14;;;;;;;3.20;2.90;;;19.10;57.90;;;;;;4973395;28;20200;-69
2023/03/21 00:03:42;;;;;;;3.40;3.10;;;19.00;57.80;;;;;;4987577;28;20189;-69
2023/03/21 00:06:11;;;;;;;3.22;2.92;;;19.10;57.90;;;;;;4988654;28;20291;-69
2023/03/21 00:08:38;;;;;;;3.80;3.40;;;19.10;57.90;;;;;;4984390;28;20212;-69
2023/03/21 00:11:09;;;;;;;3.42;3.10;;;19.10;57.90;;;;;;4980154;28;20185;-71
2023/03/21 00:13:37;;;;;;;3.40;3.10;;;19.00;57.90;;;;;;4973535;28;20185;-70
2023/03/21 00:16:14;;;;;;;3.45;3.15;;;19.10;57.90;;;;;;4979845;28;20235;-69
2023/03/21 00:18:51;;;;;;;3.38;3.08;;;19.00;57.90;;;;;;4991542;28;20196;-69
2023/03/21 00:21:27;;;;;;;4.15;3.30;;;19.00;57.90;;;;;;4991439;28;20204;-69
2023/03/21 00:23:54;;;;;;;2.78;2.47;;;19.10;57.90;;;;;;4977464;28;20197;-69
2023/03/21 00:26:21;;;;;;;3.15;2.85;;;19.00;57.80;;;;;;4988176;28;20699;-69
2023/03/21 00:28:47;;;;;;;3.20;2.90;;;19.10;57.90;;;;;;4969059;28;20188;-69
2023/03/21 00:31:14;;;;;;;3.35;3.10;;;19.10;57.90;;;;;;4991515;28;20211;-69
2023/03/21 00:33:41;;;;;;;3.30;3.00;;;19.00;57.80;;;;;;4991765;28;20186;-68
2023/03/21 00:36:08;;;;;;;3.20;2.90;;;19.10;58.00;;;;;;4991645;28;20280;-69
2023/03/21 00:38:35;;;;;;;2.80;2.55;;;19.10;57.90;;;;;;4968745;28;20187;-69
2023/03/21 00:41:07;;;;;;;3.20;2.90;;;19.00;57.70;;;;;;4984877;28;20573;-69
2023/03/21 00:43:33;;;;;;;3.38;2.83;;;19.00;57.70;;;;;;4971549;28;20285;-69
2023/03/21 00:46:00;;;;;;;2.78;2.50;;;19.00;57.80;;;;;;4994956;28;20223;-69
2023/03/21 00:48:27;;;;;;;2.78;2.53;;;19.00;57.80;;;;;;4990814;28;20255;-69
2023/03/21 00:50:56;;;;;;;3.30;2.70;;;19.00;57.80;;;;;;4992678;28;20185;-69
2023/03/21 00:53:22;;;;;;;2.80;2.60;;;19.10;57.90;;;;;;4990979;28;20303;-69
2023/03/21 00:55:49;;;;;;;3.38;3.08;;;19.00;57.80;;;;;;4991143;28;20192;-69
2023/03/21 00:58:15;;;;;;;3.20;2.95;;;19.00;57.80;;;;;;4990678;28;20665;-69
2023/03/21 01:00:45;;;;;;;3.15;2.88;;;19.00;57.70;;;;;;4969625;28;20193;-69
2023/03/21 01:03:13;;;;;;;3.10;2.80;;;19.00;57.70;;;;;;4975111;28;20215;-69
2023/03/21 01:08:28;;;;;;;3.03;2.72;;;19.00;57.80;;;;;;4988571;28;20186;-69
2023/03/21 01:10:55;;;;;;;2.78;2.40;;;19.00;57.70;;;;;;4980500;28;20189;-69
2023/03/21 01:13:23;;;;;;;2.83;2.53;;;19.00;57.70;;;;;;4988843;28;20304;-69
2023/03/21 01:15:54;;;;;;;2.67;2.47;;;19.00;57.70;;;;;;4977921;28;20189;-69
2023/03/21 01:18:26;;;;;;;2.83;2.63;;;19.00;57.70;;;;;;4988511;28;20200;-69
2023/03/21 01:20:54;;;;;;;2.60;2.40;;;19.00;57.70;;;;;;4990970;28;20235;-69
2023/03/21 01:23:20;;;;;;;2.90;2.67;;;19.00;57.70;;;;;;4990709;28;20213;-69
2023/03/21 01:25:48;;;;;;;2.70;2.50;;;19.00;57.70;;;;;;4990843;28;20217;-69
2023/03/21 01:28:15;;;;;;;2.25;2.05;;;19.00;57.70;;;;;;4974563;28;20292;-69
2023/03/21 01:30:49;;;;;;;3.05;2.70;;;19.00;57.70;;;;;;4990972;28;20191;-68
2023/03/21 01:33:17;;;;;;;2.70;2.50;;;19.00;57.70;;;;;;4990870;28;20205;-70
2023/03/21 01:35:43;;;;;;;2.33;2.13;;;19.00;57.70;;;;;;4990992;28;20196;-68
2023/03/21 01:38:09;;;;;;;2.60;2.40;;;19.00;57.70;;;;;;4990568;28;20204;-69
2023/03/21 01:40:40;;;;;;;2.67;2.47;;;19.00;57.70;;;;;;4990910;28;21009;-69
2023/03/21 01:43:29;;;;;;;2.42;2.22;;;19.00;57.70;;;;;;4987367;28;20220;-70
2023/03/21 01:46:31;;;;;;;2.70;2.50;;;19.00;57.70;;;;;;4993335;28;20212;-69
2023/03/21 01:49:27;;;;;;;2.28;2.00;;;19.00;57.60;;;;;;4983792;28;20197;-69
2023/03/21 01:52:14;;;;;;;2.58;2.38;;;19.00;57.70;;;;;;4997962;28;20208;-68
2023/03/21 01:54:42;;;;;;;2.33;2.13;;;19.00;57.70;;;;;;4990561;28;20189;-68
2023/03/21 01:57:31;;;;;;;2.30;2.10;;;19.00;57.60;;;;;;4990644;28;20634;-69
2023/03/21 02:00:10;;;;;;;2.22;2.10;;;19.00;57.70;;;;;;4991968;28;20191;-70
2023/03/21 02:02:50;;;;;;;2.25;2.08;;;19.00;57.60;;;;;;4986474;28;20214;-69
2023/03/21 02:06:29;;;;;;;2.40;2.20;;;19.00;57.60;;;;;;4982557;28;20204;-69
2023/03/21 02:09:07;;;;;;;2.40;2.20;;;19.00;57.60;;;;;;4977402;28;20193;-69
2023/03/21 02:11:36;;;;;;;1.90;1.73;;;19.00;57.60;;;;;;4966192;28;20210;-70
2023/03/21 02:14:03;;;;;;;2.58;2.30;;;19.00;57.60;;;;;;4956022;28;20179;-69
2023/03/21 02:16:49;;;;;;;2.42;2.22;;;19.00;57.70;;;;;;5008988;28;20195;-68
2023/03/21 02:19:43;;;;;;;2.08;1.98;;;19.00;57.60;;;;;;4993488;28;20185;-69
2023/03/21 02:22:39;;;;;;;2.42;2.22;;;19.00;57.60;;;;;;5010109;28;20307;-69
2023/03/21 02:25:40;;;;;;;2.40;2.20;;;19.00;57.70;;;;;;5010037;28;20263;-68
2023/03/21 02:28:31;;;;;;;2.22;2.03;;;19.00;57.60;;;;;;5009968;28;20653;-69
2023/03/21 02:31:31;;;;;;;2.22;2.10;;;19.00;57.60;;;;;;4994042;28;20270;-69
2023/03/21 02:34:31;;;;;;;1.90;1.80;;;19.00;57.60;;;;;;4985548;28;20192;-68
2023/03/21 02:37:25;;;;;;;2.47;2.28;;;19.00;57.60;;;;;;4979877;28;20281;-69
2023/03/21 02:40:17;;;;;;;2.00;1.90;;;19.00;57.50;;;;;;4980299;28;20205;-69
2023/03/21 02:43:05;;;;;;;2.42;2.05;;;19.00;57.50;;;;;;4993684;28;20241;-69
2023/03/21 02:45:59;;;;;;;2.13;1.98;;;19.00;57.50;;;;;;4976183;28;20264;-69
2023/03/21 02:48:38;;;;;;;2.10;1.90;;;19.00;57.60;;;;;;5009488;28;20271;-69
2023/03/21 02:51:09;;;;;;;2.10;2.00;;;19.00;57.50;;;;;;4976404;28;20186;-69
2023/03/21 02:53:40;;;;;;;1.75;1.65;;;19.00;57.60;;;;;;4976156;28;20189;-70
2023/03/21 02:56:09;;;;;;;2.35;2.15;;;19.00;57.60;;;;;;4977379;28;20192;-69
2023/03/21 02:58:38;;;;;;;2.03;1.83;;;19.00;57.50;;;;;;4993185;28;20235;-69
2023/03/21 03:01:07;;;;;;;1.98;1.77;;;19.00;57.50;;;;;;4995077;28;20209;-69
2023/03/21 03:03:38;;;;;;;1.70;1.60;;;19.00;57.50;;;;;;4984978;28;20271;-70
2023/03/21 03:06:32;;;;;;;2.22;2.00;;;19.00;57.60;;;;;;4977422;28;20209;-69
2023/03/21 03:09:26;;;;;;;2.10;1.90;;;19.00;57.50;;;;;;4992833;28;20208;-69
2023/03/21 03:12:12;;;;;;;2.10;1.95;;;19.00;57.50;;;;;;4996005;28;20297;-69
2023/03/21 03:15:05;;;;;;;2.00;1.90;;;19.00;57.50;;;;;;4973192;28;20198;-70
2023/03/21 03:17:54;;;;;;;1.70;1.60;;;19.00;57.50;;;;;;4982149;28;20197;-69
2023/03/21 03:20:47;;;;;;;2.05;1.95;;;19.00;57.50;;;;;;4984597;28;20224;-69
2023/03/21 03:23:38;;;;;;;2.00;1.90;;;19.00;57.50;;;;;;4985616;28;20209;-69
2023/03/21 03:26:11;;;;;;;1.70;1.60;;;19.00;57.50;;;;;;4967886;28;20209;-70
2023/03/21 03:28:44;;;;;;;1.60;1.50;;;19.00;57.50;;;;;;4989026;28;20207;-69
2023/03/21 03:31:24;;;;;;;1.83;1.70;;;19.00;57.50;;;;;;4965503;28;20190;-69
2023/03/21 03:33:59;;;;;;;1.60;1.50;;;19.00;57.50;;;;;;4977618;28;20181;-69
2023/03/21 03:36:34;;;;;;;1.73;1.48;;;19.00;57.50;;;;;;4959502;28;20189;-69
2023/03/21 03:39:11;;;;;;;1.95;1.80;;;19.00;57.40;;;;;;4978839;28;20193;-69
2023/03/21 03:41:49;;;;;;;1.90;1.70;;;19.00;57.50;;;;;;4987591;28;20312;-69
2023/03/21 03:44:16;;;;;;;2.20;2.00;;;19.00;57.50;;;;;;4972834;28;20583;-69
2023/03/21 03:47:08;;;;;;;1.88;1.70;;;19.00;57.50;;;;;;4961909;28;20209;-69
2023/03/21 03:49:54;;;;;;;2.20;2.00;;;19.00;57.50;;;;;;4967860;28;20189;-70
2023/03/21 03:52:28;;;;;;;1.73;1.63;;;19.00;57.50;;;;;;4992132;28;20216;-69
2023/03/21 03:55:10;;;;;;;2.00;1.80;;;19.00;57.40;;;;;;4985816;28;20181;-69
2023/03/21 03:57:40;;;;;;;1.92;1.50;;;19.00;57.40;;;;;;4991253;28;20192;-69
2023/03/21 04:00:11;;;;;;;1.90;1.80;;;19.00;57.40;;;;;;4977864;28;20217;-69
2023/03/21 04:02:44;;;;;;;2.10;2.00;;;19.00;57.40;;;;;;4991604;28;20270;-69
2023/03/21 04:05:12;;;;;;;1.83;1.73;;;19.00;57.50;;;;;;4960950;28;20212;-69
2023/03/21 04:07:38;;;;;;;1.98;1.77;;;19.00;57.40;;;;;;4958390;28;20213;-69
2023/03/21 04:10:04;;;;;;;1.90;1.80;;;19.00;57.40;;;;;;4991838;28;20189;-69
2023/03/21 04:12:38;;;;;;;1.90;1.70;;;19.00;57.40;;;;;;4979573;28;20202;-69
2023/03/21 04:15:20;;;;;;;1.63;1.52;;;19.00;57.40;;;;;;4977128;28;20227;-70
2023/03/21 04:17:54;;;;;;;2.55;1.73;;;19.00;57.40;;;;;;4953268;28;20190;-69
2023/03/21 04:20:20;;;;;;;1.58;1.48;;;19.00;57.40;;;;;;4985012;28;20211;-70
2023/03/21 04:22:47;;;;;;;1.85;1.75;;;19.00;57.30;;;;;;4973556;28;20216;-69
2023/03/21 04:25:14;;;;;;;2.00;1.77;;;19.00;57.30;;;;;;4979128;28;20645;-69
2023/03/21 04:27:40;;;;;;;1.58;1.48;;;19.00;57.30;;;;;;4975011;28;20340;-69
2023/03/21 04:30:28;;;;;;;2.22;2.03;;;19.00;57.30;;;;;;4985968;28;20273;-69
2023/03/21 04:33:02;;;;;;;1.70;1.60;;;19.00;57.30;;;;;;4992180;28;20212;-71
2023/03/21 04:35:33;;;;;;;1.88;1.77;;;19.00;57.40;;;;;;4990223;28;20193;-69
2023/03/21 04:38:01;;;;;;;1.52;1.42;;;19.00;57.30;;;;;;4956047;28;20240;-69
2023/03/21 04:40:26;;;;;;;1.90;1.80;;;19.00;57.40;;;;;;4988392;28;20181;-69
2023/03/21 04:42:54;;;;;;;1.90;1.80;;;19.00;57.30;;;;;;5036982;22;20277;-71
2023/03/21 04:45:20;;;;;;;1.52;1.42;;;19.00;57.30;;;;;;5027195;28;20188;-71
2023/03/21 04:47:46;;;;;;;1.58;1.48;;;19.00;57.30;;;;;;5029850;28;20185;-71
2023/03/21 04:50:12;;;;;;;2.03;1.75;;;19.00;57.30;;;;;;4999588;28;20245;-71
2023/03/21 04:52:39;;;;;;;1.55;1.45;;;19.00;57.30;;;;;;5021278;28;20212;-71
2023/03/21 04:55:08;;;;;;;1.80;1.70;;;19.00;57.30;;;;;;5006106;28;20183;-71
2023/03/21 04:57:38;;;;;;;1.58;1.48;;;19.00;57.30;;;;;;5028353;28;20184;-71
2023/03/21 05:00:10;;;;;;;1.67;1.58;;;19.00;57.20;;;;;;5027174;28;20192;-71
2023/03/21 05:02:37;;;;;;;1.38;1.27;;;19.00;57.30;;;;;;5010918;28;20295;-71
2023/03/21 05:05:09;;;;;;;1.80;1.70;;;19.00;57.30;;;;;;5022684;28;20175;-71
2023/03/21 05:07:40;;;;;;;1.70;1.60;;;19.00;57.30;;;;;;4997757;28;20216;-72
2023/03/21 05:10:10;;;;;;;1.75;1.65;;;19.00;57.20;;;;;;5000290;28;20215;-71
2023/03/21 05:12:38;;;;;;;2.03;1.83;;;19.00;57.20;;;;;;5012472;28;20294;-71
2023/03/21 05:15:06;;;;;;;2.10;2.00;;;19.00;57.30;;;;;;5026624;28;20287;-71
2023/03/21 05:17:31;;;;;;;1.85;1.75;;;19.00;57.30;;;;;;5030055;28;20198;-71
2023/03/21 05:19:58;;;;;;;1.55;1.45;;;19.00;57.20;;;;;;5010877;28;20188;-71
2023/03/21 05:22:25;;;;;;;2.05;1.83;;;19.00;57.30;;;;;;4999086;28;20261;-71
2023/03/21 05:24:54;;;;;;;1.52;1.42;;;19.00;57.30;;;;;;5035810;28;20219;-71
2023/03/21 05:27:52;;;;;;;1.52;1.42;;;19.00;57.30;;;;;;5020683;28;20272;-71
2023/03/21 05:30:20;;;;;;;1.80;1.70;;;19.00;57.20;;;;;;5014863;28;20222;-71
2023/03/21 05:32:49;;;;;;;1.70;1.60;;;19.00;57.20;;;;;;5006404;28;20202;-71
2023/03/21 05:35:16;;;;;;;1.60;1.50;;;19.00;57.80;;;;;;4999671;28;20215;-70
2023/03/21 05:37:41;;;;;;;2.33;1.83;;;19.00;57.10;;;;;;5031481;28;20226;-71
2023/03/21 05:40:08;;;;;;;1.80;1.70;;;19.00;57.20;;;;;;5016105;28;20193;-71
2023/03/21 05:42:37;;;;;;;1.60;1.50;;;19.00;57.10;;;;;;5030803;28;20284;-71
2023/03/21 05:45:12;;;;;;;2.05;1.63;;;19.00;57.20;;;;;;5029970;28;20183;-71
2023/03/21 05:47:39;;;;;;;3.15;1.52;;;19.00;57.40;;;;;;5052961;28;20254;-71
2023/03/21 05:50:05;;;;;;;4.85;1.73;;;19.00;57.30;;;;;;5019750;28;20186;-71
2023/03/21 05:52:32;;;;;;;2.47;1.83;;;19.00;57.40;;;;;;5027534;28;20216;-72
2023/03/21 05:55:00;;;;;;;1.58;1.48;;;19.10;57.50;;;;;;5052198;28;20191;-71
2023/03/21 05:57:27;;;;;;;1.42;1.33;;;19.10;57.40;;;;;;5019207;28;20191;-70
2023/03/21 06:00:03;;;;;;;1.45;1.35;;;19.00;57.40;;;;;;5013345;28;20186;-71
2023/03/21 06:02:41;;;;;;;2.58;1.60;;;19.00;57.30;;;;;;5035079;28;20221;-71
2023/03/21 06:05:17;;;;;;;2.20;1.60;;;19.00;57.40;;;;;;5008410;28;20213;-71
2023/03/21 06:07:43;;;;;;;3.97;1.52;;;19.00;57.30;;;;;;5028655;28;20225;-71
2023/03/21 06:10:10;;;;;;;2.20;1.60;;;19.00;57.40;;;;;;5040616;28;20195;-71
2023/03/21 06:12:38;;;;;;;3.15;1.50;;;19.00;57.40;;;;;;5033846;28;20302;-72
2023/03/21 06:15:25;;;;;;;1.90;1.70;;;19.00;57.90;;;;;;5033909;28;20190;-71
2023/03/21 06:17:56;;;;;;;2.70;1.70;;;19.00;57.30;;;;;;5015424;28;20180;-72
2023/03/21 06:20:22;;;;;;;1.80;1.70;;;19.10;57.40;;;;;;5024701;28;20184;-72
2023/03/21 06:22:52;;;;;;;2.10;1.90;;;19.00;57.30;;;;;;5011028;28;20515;-72
2023/03/21 06:25:18;;;;;;;2.08;1.98;;;19.00;57.30;;;;;;5006508;28;20199;-72
2023/03/21 06:27:44;;;;;;;2.45;2.03;;;19.00;57.30;;;;;;5012223;28;20215;-71
2023/03/21 06:30:10;;;;;;;2.40;2.20;;;19.10;57.40;;;;;;5008279;28;20183;-72
2023/03/21 06:32:51;;;;;;;2.17;1.90;;;19.00;57.30;;;;;;5036701;28;20208;-72
2023/03/21 06:35:17;;;;;;;3.28;1.90;;;19.00;57.30;;;;;;5011758;28;20179;-69
2023/03/21 06:37:44;;;;;;;2.13;2.00;;;19.00;57.30;;;;;;5024387;28;20187;-70
2023/03/21 06:40:11;;;;;;;3.63;2.05;;;19.10;57.40;;;;;;5032904;28;20195;-70
2023/03/21 06:42:36;;;;;;;2.20;2.00;;;19.00;57.30;;;;;;5029032;28;20338;-70
2023/03/21 06:45:09;;;;;;;2.30;2.10;;;19.00;57.20;;;;;;5011703;28;20184;-70
2023/03/21 06:47:35;;;;;;;2.50;2.10;;;19.00;57.20;;;;;;5013355;28;20246;-70
2023/03/21 06:50:05;;;;;;;2.17;1.98;;;19.00;57.20;;;;;;5003854;28;20183;-71
2023/03/21 06:52:38;;;;;;;2.35;2.15;;;19.00;57.20;;;;;;5014672;28;20210;-71
2023/03/21 06:55:05;;;;;;;2.50;2.30;;;19.10;57.30;;;;;;5015821;28;20190;-70
2023/03/21 06:57:31;;;;;;;2.58;1.92;;;19.10;57.20;;;;;;5015553;28;20183;-71
2023/03/21 06:59:57;;;;;;;2.17;1.98;;;19.10;57.20;;;;;;5020796;28;20195;-70
2023/03/21 07:02:23;;;;;;;2.47;2.17;;;19.00;57.20;;;;;;4995788;28;20218;-71
2023/03/21 07:04:59;;;;;;;2.47;1.90;;;19.10;57.20;;;;;;5017108;28;20179;-71
2023/03/21 07:07:28;;;;;;;2.05;1.95;;;19.10;57.30;;;;;;5019490;28;20211;-70
2023/03/21 07:09:54;;;;;;;2.20;2.00;;;19.10;57.20;;;;;;5012366;28;20183;-71
2023/03/21 07:12:22;;;;;;;2.22;2.03;;;19.10;57.10;;;;;;5010724;28;20276;-71
2023/03/21 07:15:05;;;;;;;2.13;1.90;;;19.20;57.10;;;;;;5032155;28;20183;-70
2023/03/21 07:17:32;;;;;;;3.90;2.13;;;19.20;57.10;;;;;;5012213;28;20241;-71
2023/03/21 07:19:59;;;;;;;2.30;2.10;;;19.20;57.00;;;;;;5025750;28;20187;-71
2023/03/21 07:22:25;;;;;;;3.22;2.10;;;19.20;57.00;;;;;;5015246;28;20753;-71
2023/03/21 07:24:51;;;;;;;2.63;2.30;;;19.20;56.90;;;;;;5023592;28;20192;-71
2023/03/21 07:27:17;;;;;;;2.60;2.40;;;19.30;57.00;;;;;;5048321;28;20593;-71
2023/03/21 07:29:46;;;;;;;2.50;2.30;;;19.30;57.00;;;;;;5023208;28;20187;-71
2023/03/21 07:32:12;;;;;;;3.25;2.40;;;19.30;57.00;;;;;;5009974;28;20342;-71
2023/03/21 07:34:38;;;;;;;2.95;2.38;;;19.30;57.00;;;;;;5020721;28;20195;-71
2023/03/21 07:37:05;;;;;;;2.15;1.95;;;19.40;57.00;;;;;;5023668;28;20191;-71
2023/03/21 07:39:33;;;;;;;3.58;2.17;;;19.40;57.00;;;;;;5031555;28;20221;-71
2023/03/21 07:42:00;;;;;;;2.05;1.95;;;19.40;56.90;;;;;;5036539;28;20214;-70
2023/03/21 07:44:33;;;;;;;2.60;2.40;;;19.40;56.90;;;;;;5004469;28;20196;-71
2023/03/21 07:47:04;;;;;;;2.30;2.10;;;19.40;57.00;;;;;;5031148;28;20202;-71
2023/03/21 07:49:30;;;;;;;2.55;2.17;;;19.40;57.00;;;;;;5031173;28;20229;-71
2023/03/21 07:51:56;;;;;;;2.95;2.10;;;19.40;56.90;;;;;;5031202;28;20207;-70
2023/03/21 07:54:22;;;;;;;4.13;2.30;;;19.40;56.90;;;;;;5031172;28;20198;-70
2023/03/21 07:56:48;;;;;;;3.55;2.00;;;19.40;56.80;;;;;;5023069;28;20191;-71
2023/03/21 07:59:14;;;;;;;3.38;2.00;;;19.40;56.80;;;;;;5031077;28;20215;-71
2023/03/21 08:01:39;;;;;;;3.13;2.08;;;19.50;56.90;;;;;;5030893;28;20666;-70
2023/03/21 08:04:05;;;;;;;2.80;1.90;;;19.50;56.80;;;;;;5047643;28;20192;-71
2023/03/21 08:06:31;;;;;;;2.75;2.00;;;19.50;56.80;;;;;;5014178;28;20249;-71
2023/03/21 08:08:58;;;;;;;2.83;1.75;;;19.50;56.80;;;;;;5004305;28;20184;-72
2023/03/21 08:11:24;;;;;;;2.22;2.03;;;19.50;56.70;;;;;;5022113;28;20654;-71
2023/03/21 08:13:50;;;;;;;1.75;1.60;;;19.50;56.70;;;;;;5021507;28;20566;-71
2023/03/21 08:16:16;;;;;;;1.90;1.80;;;19.50;56.70;;;;;;5010580;28;20191;-71
2023/03/21 08:18:42;;;;;;;3.53;1.80;;;19.50;56.60;;;;;;5030519;28;20227;-72
2023/03/21 08:21:08;;;;;;;2.88;1.90;;;19.60;56.70;;;;;;5016201;28;20622;-71
2023/03/21 08:23:35;;;;;;;2.05;1.85;;;19.60;56.60;;;;;;5047206;28;20214;-71
2023/03/21 08:26:00;;;;;;;2.60;1.90;;;19.60;56.60;;;;;;5030734;28;20211;-71
2023/03/21 08:28:27;;;;;;;2.30;1.85;;;19.60;56.60;;;;;;5024821;28;20191;-71
2023/03/21 08:30:52;;;;;;;2.22;1.73;;;19.60;56.60;;;;;;4996842;28;20192;-71
2023/03/21 08:33:19;;;;;;;2.45;2.10;;;19.60;56.60;;;;;;5030555;28;20223;-71
2023/03/21 08:35:45;;;;;;;2.17;1.98;;;19.50;56.60;;;;;;5030316;28;20191;-71
2023/03/21 08:38:11;;;;;;;2.22;1.85;;;19.50;56.60;;;;;;5016802;28;20643;-71
2023/03/21 08:40:37;;;;;;;1.80;1.70;;;19.50;56.60;;;;;;5030560;28;20194;-71
2023/03/21 08:43:03;;;;;;;2.50;2.10;;;19.50;56.60;;;;;;5026804;28;20281;-70
2023/03/21 08:45:29;;;;;;;2.83;2.17;;;19.50;56.50;;;;;;5025883;28;20248;-71
2023/03/21 08:47:56;;;;;;;2.55;1.60;;;19.50;56.60;;;;;;5019749;28;20199;-71
2023/03/21 08:50:25;;;;;;;1.75;1.65;;;19.50;56.60;;;;;;5026368;28;20202;-71
2023/03/21 08:52:51;;;;;;;2.58;1.90;;;19.50;56.60;;;;;;5013971;28;20295;-71
2023/03/21 08:55:18;;;;;;;3.25;1.90;;;19.50;56.60;;;;;;5047050;28;20302;-71
2023/03/21 08:57:44;;;;;;;2.95;1.80;;;19.50;56.50;;;;;;5030111;28;20195;-71
2023/03/21 09:00:16;;;;;;;1.65;1.38;;;19.50;56.40;;;;;;5030569;28;20226;-71
2023/03/21 09:02:51;;;;;;;1.77;1.67;;;19.50;56.50;;;;;;5013824;28;20211;-71
2023/03/21 09:05:18;;;;;;;1.75;1.48;;;19.50;56.40;;;;;;5013868;28;20194;-71
2023/03/21 09:07:44;;;;;;;2.45;1.70;;;19.50;56.40;;;;;;5032552;28;20219;-72
2023/03/21 09:10:18;;;;;;;2.10;1.48;;;19.50;56.30;;;;;;5013845;28;20187;-72
2023/03/21 09:12:43;;;;;;;1.90;1.70;;;19.50;56.40;;;;;;5029651;28;20211;-71
2023/03/21 09:15:11;;;;;;;1.73;1.55;;;19.50;56.40;;;;;;5031336;28;20236;-71
2023/03/21 09:17:41;;;;;;;2.50;1.50;;;19.50;56.40;;;;;;5013539;28;20242;-71
2023/03/21 09:20:10;;;;;;;1.50;1.40;;;19.50;56.40;;;;;;5027314;28;20217;-71
2023/03/21 09:22:38;;;;;;;1.58;1.48;;;19.50;56.40;;;;;;5026029;28;20639;-71
2023/03/21 09:25:07;;;;;;;2.83;1.75;;;19.50;56.40;;;;;;5022464;28;20590;-71
2023/03/21 09:27:33;;;;;;;1.52;1.42;;;19.50;56.40;;;;;;5014043;28;20219;-71
2023/03/21 09:29:59;;;;;;;2.55;1.65;;;19.50;56.40;;;;;;5030816;28;20225;-71
2023/03/21 09:32:26;;;;;;;1.58;1.48;;;19.50;56.40;;;;;;5009201;28;20268;-71
2023/03/21 09:34:54;;;;;;;2.25;1.50;;;19.50;56.40;;;;;;5032222;28;20238;-72
2023/03/21 09:37:20;;;;;;;1.55;1.45;;;19.50;56.40;;;;;;5017481;28;20187;-71
2023/03/21 09:39:46;;;;;;;1.52;1.42;;;19.50;56.30;;;;;;5006579;28;20196;-71
2023/03/21 09:43:09;;;;;;;2.58;1.58;;;19.50;56.30;;;;;;5025026;28;20223;-71
2023/03/21 09:46:07;;;;;;;1.50;1.35;;;19.50;56.30;;;;;;4998704;28;20204;-71
2023/03/21 09:48:49;;;;;;;2.05;1.60;;;19.50;56.30;;;;;;5009733;28;20184;-71
2023/03/21 09:51:18;;;;;;;2.35;1.60;;;19.50;56.30;;;;;;5010448;28;20199;-71
2023/03/21 09:53:50;;;;;;;1.67;1.58;;;19.50;56.30;;;;;;5033081;28;20285;-71
2023/03/21 09:56:16;;;;;;;1.60;1.50;;;19.50;56.30;;;;;;5013888;28;20203;-70
2023/03/21 09:58:58;;;;;;;2.05;1.58;;;19.50;56.30;;;;;;5023538;28;20193;-71
2023/03/21 10:01:31;;;;;;;2.03;1.58;;;19.50;56.30;;;;;;5033860;28;20191;-71
2023/03/21 10:04:03;;;;;;;1.55;1.23;;;19.50;56.20;;;;;;5031058;28;20294;-71
2023/03/21 10:06:30;;;;;;;1.63;1.52;;;19.50;56.10;;;;;;5028371;28;20206;-72
2023/03/21 10:09:06;;;;;;;1.40;1.30;;;19.50;56.20;;;;;;5026544;28;20214;-71
2023/03/21 10:11:49;;;;;;;1.23;1.13;;;19.50;56.20;;;;;;5046752;28;20191;-71
2023/03/21 10:14:44;;;;;;;2.53;1.45;;;19.50;56.20;;;;;;5030849;28;20195;-72
2023/03/21 10:17:32;;;;;;;2.78;1.27;;;19.50;56.30;;;;;;5030902;28;20191;-71
2023/03/21 10:20:20;;;;;;;2.13;1.23;;;19.50;56.20;;;;;;5033351;28;20206;-72
2023/03/21 10:22:50;;;;;;;1.20;1.10;;;19.50;56.00;;;;;;5049647;28;20694;-71
2023/03/21 10:25:23;;;;;;;2.10;1.40;;;19.50;56.00;;;;;;5016676;28;20226;-71
2023/03/21 10:27:51;;;;;;;1.80;1.50;;;19.50;56.00;;;;;;5033883;28;20769;-72
2023/03/21 10:30:43;;;;;;;2.58;1.77;;;19.50;56.00;;;;;;5035138;28;20190;-71
2023/03/21 10:33:16;;;;;;;1.25;1.10;;;19.50;56.10;;;;;;5033024;28;20211;-71
2023/03/21 10:35:48;;;;;;;1.30;1.20;;;19.50;56.10;;;;;;5016479;28;20274;-71
2023/03/21 10:38:18;;;;;;;1.38;1.27;;;19.50;56.10;;;;;;5025401;28;20199;-71
2023/03/21 10:40:44;;;;;;;1.52;1.40;;;19.50;55.90;;;;;;5016404;28;20191;-71
2023/03/21 10:43:33;;;;;;;1.50;1.40;;;19.50;56.00;;;;;;5056309;22;20231;-68
2023/03/21 10:46:22;;;;;;;2.25;1.70;;;19.50;55.90;;;;;;5030272;28;20218;-68
2023/03/21 10:48:52;;;;;;;1.92;1.25;;;19.50;55.80;;;;;;5029734;28;20191;-67
2023/03/21 10:51:24;;;;;;;2.78;1.50;;;19.60;55.90;;;;;;5036346;28;20698;-68
2023/03/21 10:54:23;;;;;;;1.52;1.33;;;19.50;55.90;;;;;;5015130;28;20212;-68
2023/03/21 10:57:03;;;;;;;1.35;1.25;;;19.60;56.20;;;;;;4985284;28;20199;-68
2023/03/21 10:59:39;;;;;;;2.35;1.40;;;19.50;56.00;;;;;;5032338;28;20578;-68
2023/03/21 11:02:09;;;;;;;1.52;1.42;;;19.50;55.80;;;;;;5033591;28;20199;-68
2023/03/21 11:04:37;;;;;;;1.40;1.30;;;19.50;55.80;;;;;;5032295;28;20224;-68
2023/03/21 11:07:06;;;;;;;1.30;1.10;;;19.50;55.70;;;;;;5032082;28;20211;-69
2023/03/21 11:09:56;;;;;;;1.40;1.30;;;19.50;55.60;;;;;;5015819;28;20214;-69
2023/03/21 11:12:33;;;;;;;1.15;1.02;;;19.60;55.70;;;;;;5027153;28;20327;-68
2023/03/21 11:15:37;;;;;;;1.30;1.20;;;19.50;55.70;;;;;;5021631;28;20191;-68
2023/03/21 11:18:18;;;;;;;1.30;1.20;;;19.60;56.00;;;;;;5016182;28;20196;-68
2023/03/21 11:20:50;;;;;;;1.40;1.30;;;19.50;55.60;;;;;;5032331;28;20249;-68
2023/03/21 11:23:16;;;;;;;1.17;0.90;;;19.60;55.70;;;;;;5015547;28;20215;-68
2023/03/21 11:25:42;;;;;;;1.30;1.10;;;19.50;55.60;;;;;;5015357;28;20662;-69
2023/03/21 11:28:17;;;;;;;1.27;1.17;;;19.60;55.70;;;;;;5015315;28;20198;-68
2023/03/21 11:30:54;;;;;;;1.20;1.10;;;19.60;55.70;;;;;;5031985;28;20187;-68
2023/03/21 11:33:26;;;;;;;1.20;1.10;;;19.60;55.70;;;;;;5015402;28;20286;-68
2023/03/21 11:36:06;;;;;;;1.35;1.25;;;19.60;55.70;;;;;;5031562;28;20184;-69
2023/03/21 11:38:38;;;;;;;1.33;1.20;;;19.60;55.70;;;;;;5015743;28;20225;-68
2023/03/21 11:41:06;;;;;;;1.33;1.23;;;19.60;55.80;;;;;;5006997;28;20192;-68
2023/03/21 11:43:36;;;;;;;1.92;1.38;;;19.60;55.70;;;;;;5003447;28;20226;-69
2023/03/21 11:46:13;;;;;;;1.75;1.30;;;19.60;55.70;;;;;;5011788;28;20224;-69
2023/03/21 11:48:50;;;;;;;1.40;1.30;;;19.60;55.70;;;;;;5010232;28;20191;-68
2023/03/21 11:51:30;;;;;;;1.60;1.50;;;19.60;55.70;;;;;;5031681;28;20244;-68
2023/03/21 11:54:52;;;;;;;1.10;1.00;;;19.60;55.70;;;;;;5031347;28;20202;-68
2023/03/21 11:57:43;;;;;;;1.20;1.08;;;19.60;55.70;;;;;;5021966;28;20235;-68
2023/03/21 12:00:28;;;;;;;1.17;1.08;;;19.60;55.70;;;;;;5006599;28;20227;-68
2023/03/21 12:03:24;;;;;;;1.52;1.42;;;19.60;55.70;;;;;;5022795;28;20216;-68
2023/03/21 12:06:00;;;;;;;1.80;1.30;;;19.60;55.60;;;;;;5006299;28;20188;-68
2023/03/21 12:09:33;;;;;;;1.85;1.42;;;19.60;55.60;;;;;;5019853;28;20183;-68
2023/03/21 12:12:23;;;;;;;2.28;1.52;;;19.60;55.80;;;;;;4929898;28;20268;-67
2023/03/21 12:15:21;;;;;;;1.15;1.05;;;19.60;55.70;;;;;;4965197;28;20194;-68
2023/03/21 12:18:23;;;;;;;2.20;1.15;;;19.60;55.70;;;;;;4995839;28;20235;-67
2023/03/21 12:21:07;;;;;;;1.38;1.27;;;19.60;55.70;;;;;;5009362;28;20245;-68
2023/03/21 12:23:56;;;;;;;1.38;1.27;;;19.60;55.60;;;;;;5009608;28;20222;-67
2023/03/21 12:26:28;;;;;;;1.35;1.25;;;19.60;55.60;;;;;;5011898;28;20276;-68
2023/03/21 12:29:00;;;;;;;1.23;1.13;;;19.60;55.60;;;;;;5012928;28;20188;-68
2023/03/21 12:31:48;;;;;;;1.10;1.00;;;19.60;55.60;;;;;;5001026;28;20233;-68
2023/03/21 12:34:29;;;;;;;1.20;1.10;;;19.60;55.50;;;;;;5020049;28;20262;-68
2023/03/21 12:37:31;;;;;;;2.42;1.27;;;19.60;55.60;;;;;;5008803;28;20206;-68
2023/03/21 12:40:47;;;;;;;1.48;1.10;;;19.60;55.60;;;;;;4969521;28;20212;-68
2023/03/21 12:43:20;;;;;;;1.40;1.30;;;19.60;55.70;;;;;;4991107;28;20238;-68
2023/03/21 12:45:51;;;;;;;1.45;1.30;;;19.60;55.60;;;;;;5018711;28;20226;-68
2023/03/21 12:48:28;;;;;;;1.83;1.48;;;19.60;55.50;;;;;;5011579;28;20279;-67
2023/03/21 12:51:00;;;;;;;2.08;1.00;;;19.60;55.50;;;;;;5016697;28;20187;-68
2023/03/21 12:53:48;;;;;;;2.22;1.27;;;19.60;55.60;;;;;;5013421;28;20208;-68
2023/03/21 12:56:29;;;;;;;1.58;1.10;;;19.60;55.60;;;;;;5018790;28;20187;-68
2023/03/21 12:59:16;;;;;;;1.20;1.10;;;19.60;55.40;;;;;;5014622;28;20202;-68
2023/03/21 13:01:45;;;;;;;1.33;1.23;;;19.60;55.20;;;;;;4995810;28;20270;-67
2023/03/21 13:04:55;;;;;;;1.77;1.38;;;19.60;55.40;;;;;;5013439;28;20238;-68
2023/03/21 13:07:24;;;;;;;1.30;1.20;;;19.60;55.40;;;;;;5016524;28;20217;-68
2023/03/21 13:09:50;;;;;;;0.93;0.93;;;19.60;55.70;;;;;;5011834;28;20195;-68
2023/03/21 13:12:34;;;;;;;1.20;1.10;;;19.60;55.50;;;;;;4999675;28;20203;-68
2023/03/21 13:15:36;;;;;;;2.00;1.13;;;19.60;55.50;;;;;;5023712;28;20189;-68
2023/03/21 13:18:36;;;;;;;1.17;1.08;;;19.60;55.20;;;;;;5011783;28;20220;-68
2023/03/21 13:21:45;;;;;;;1.20;1.10;;;19.60;55.30;;;;;;5013330;28;20184;-68
2023/03/21 13:24:48;;;;;;;1.23;1.20;;;19.60;55.60;;;;;;5019339;28;20219;-67
2023/03/21 13:27:27;;;;;;;1.55;1.00;;;19.60;55.20;;;;;;5012613;28;20318;-68
2023/03/21 13:30:00;;;;;;;1.27;1.17;;;19.60;55.20;;;;;;4995169;28;20191;-69